createdAt,value
2023-04-22T00:00:59.829Z,15.60
2023-04-22T00:03:31.501Z,14.40
2023-04-22T00:06:02.726Z,12.00
2023-04-22T00:08:33.607Z,12.80
2023-04-22T00:11:04.758Z,14.30
2023-04-22T00:13:37.193Z,18.90
2023-04-22T00:16:08.551Z,18.20
2023-04-22T00:18:39.619Z,18.40
2023-04-22T00:21:10.585Z,14.30
2023-04-22T00:23:41.401Z,16.10
2023-04-22T00:26:12.394Z,14.00
2023-04-22T00:28:43.987Z,19.50
2023-04-22T00:31:15.048Z,22.40
2023-04-22T00:33:46.108Z,15.60
2023-04-22T00:36:16.922Z,15.40
2023-04-22T00:38:51.126Z,15.50
2023-04-22T00:41:22.004Z,16.00
2023-04-22T00:43:54.791Z,11.30
2023-04-22T00:46:26.320Z,15.70
2023-04-22T00:48:57.590Z,19.70
2023-04-22T00:51:28.501Z,14.30
2023-04-22T00:53:59.389Z,18.40
2023-04-22T00:56:31.138Z,11.70
2023-04-22T00:59:02.635Z,11.70
2023-04-22T01:01:34.350Z,15.90
2023-04-22T01:04:06.957Z,18.10
2023-04-22T01:06:38.084Z,15.30
2023-04-22T01:09:09.814Z,16.80
2023-04-22T01:11:41.258Z,14.30
2023-04-22T01:14:12.306Z,13.00
2023-04-22T01:16:44.869Z,16.10
2023-04-22T01:19:16.392Z,11.40
2023-04-22T01:21:48.322Z,12.30
2023-04-22T01:24:19.401Z,11.60
2023-04-22T01:26:50.671Z,14.30
2023-04-22T01:29:22.129Z,12.00
2023-04-22T01:31:54.713Z,13.30
2023-04-22T01:38:38.061Z,10.80
2023-04-22T01:41:09.456Z,15.10
2023-04-22T01:43:40.841Z,12.80
2023-04-22T01:46:11.688Z,12.10
2023-04-22T01:48:43.683Z,14.40
2023-04-22T01:51:14.499Z,14.10
2023-04-22T01:53:48.669Z,12.50
2023-04-22T01:56:20.094Z,13.70
2023-04-22T01:58:51.106Z,10.40
2023-04-22T02:01:21.960Z,12.70
2023-04-22T02:03:52.893Z,12.80
2023-04-22T02:06:23.816Z,12.10
2023-04-22T02:08:54.615Z,15.10
2023-04-22T02:11:25.885Z,18.90
2023-04-22T02:13:57.045Z,13.20
2023-04-22T02:16:29.040Z,12.90
2023-04-22T02:19:00.287Z,14.10
2023-04-22T02:21:33.161Z,11.40
2023-04-22T02:24:03.960Z,14.80
2023-04-22T02:26:34.778Z,16.30
2023-04-22T02:29:05.586Z,12.60
2023-04-22T02:31:36.451Z,13.40
2023-04-22T02:34:07.451Z,10.50
2023-04-22T02:36:38.757Z,13.50
2023-04-22T02:39:09.918Z,13.60
2023-04-22T02:41:43.192Z,12.60
2023-04-22T02:44:14.176Z,10.00
2023-04-22T02:46:45.873Z,11.70
2023-04-22T02:49:16.627Z,13.50
2023-04-22T02:51:47.977Z,11.00
2023-04-22T02:54:18.870Z,14.00
2023-04-22T02:56:49.857Z,13.00
2023-04-22T02:59:20.784Z,13.70
2023-04-22T03:01:51.772Z,12.20
2023-04-22T03:04:35.442Z,8.90
2023-04-22T03:07:06.474Z,9.20
2023-04-22T03:09:38.903Z,10.70
2023-04-22T03:12:10.685Z,13.50
2023-04-22T03:14:41.573Z,11.40
2023-04-22T03:17:12.556Z,13.60
2023-04-22T03:19:43.630Z,11.60
2023-04-22T03:22:14.982Z,9.20
2023-04-22T03:24:46.392Z,13.40
2023-04-22T03:27:17.307Z,14.50
2023-04-22T03:29:48.171Z,11.50
2023-04-22T03:32:19.091Z,9.30
2023-04-22T03:34:50.870Z,10.80
2023-04-22T03:37:22.739Z,14.70
2023-04-22T03:39:53.602Z,11.80
2023-04-22T03:42:24.605Z,11.60
2023-04-22T03:44:55.677Z,11.90
2023-04-22T03:47:27.996Z,12.90
2023-04-22T03:52:35.705Z,13.80
2023-04-22T03:55:07.525Z,12.00
2023-04-22T03:57:39.058Z,13.90
2023-04-22T04:00:11.924Z,12.00
2023-04-22T04:02:45.187Z,9.90
2023-04-22T04:05:17.786Z,12.00
2023-04-22T04:07:49.053Z,16.20
2023-04-22T04:10:20.126Z,12.70
2023-04-22T04:12:51.720Z,11.00
2023-04-22T04:15:24.268Z,11.10
2023-04-22T04:17:56.923Z,14.50
2023-04-22T04:20:28.354Z,14.90
2023-04-22T04:22:59.278Z,15.20
2023-04-22T04:25:37.820Z,14.20
2023-04-22T04:28:12.087Z,12.70
2023-04-22T04:30:43.374Z,14.40
2023-04-22T04:33:16.784Z,9.90
2023-04-22T04:35:48.437Z,11.10
2023-04-22T04:38:21.601Z,9.50
2023-04-22T04:40:53.943Z,10.00
2023-04-22T04:43:29.472Z,11.40
2023-04-22T04:46:21.241Z,12.70
2023-04-22T04:48:54.126Z,9.30
2023-04-22T04:51:26.733Z,9.50
2023-04-22T04:56:32.756Z,7.70
2023-04-22T04:59:03.792Z,9.70
2023-04-22T05:01:36.791Z,9.40
2023-04-22T05:04:11.894Z,9.70
2023-04-22T05:06:45.204Z,12.30
2023-04-22T05:09:17.909Z,8.60
2023-04-22T05:11:49.056Z,8.60
2023-04-22T05:14:22.570Z,15.00
2023-04-22T05:16:53.689Z,16.50
2023-04-22T05:19:24.636Z,13.00
2023-04-22T05:21:55.851Z,10.30
2023-04-22T05:24:27.282Z,9.50
2023-04-22T05:26:58.566Z,10.90
2023-04-22T05:29:30.131Z,12.60
2023-04-22T05:32:01.008Z,12.00
2023-04-22T05:34:32.187Z,11.50
2023-04-22T05:37:03.524Z,9.60
2023-04-22T05:39:35.247Z,7.30
2023-04-22T05:42:06.949Z,11.30
2023-04-22T05:44:38.245Z,15.30
2023-04-22T05:47:09.529Z,10.30
2023-04-22T05:49:41.085Z,11.70
2023-04-22T05:52:18.937Z,12.70
2023-04-22T05:55:11.078Z,14.30
2023-04-22T05:57:41.876Z,9.40
2023-04-22T06:00:22.524Z,8.80
2023-04-22T06:02:58.489Z,14.40
2023-04-22T06:05:29.533Z,11.20
2023-04-22T06:08:01.811Z,17.10
2023-04-22T06:10:32.656Z,10.00
2023-04-22T06:13:03.718Z,11.60
2023-04-22T06:15:37.152Z,12.70
2023-04-22T06:18:08.791Z,9.30
2023-04-22T06:20:40.564Z,13.20
2023-04-22T06:23:11.246Z,14.00
2023-04-22T06:25:42.033Z,11.70
2023-04-22T06:28:19.866Z,8.50
2023-04-22T06:30:51.438Z,11.90
2023-04-22T06:33:23.229Z,15.40
2023-04-22T06:35:54.406Z,11.00
2023-04-22T06:38:25.260Z,18.80
2023-04-22T06:41:15.220Z,11.70
2023-04-22T06:43:49.885Z,12.10
2023-04-22T06:46:51.168Z,12.30
2023-04-22T06:49:40.840Z,13.10
2023-04-22T06:52:44.434Z,11.60
2023-04-22T06:55:16.408Z,14.20
2023-04-22T06:57:47.237Z,10.10
2023-04-22T07:00:19.885Z,16.20
2023-04-22T07:02:51.887Z,11.80
2023-04-22T07:05:23.212Z,14.90
2023-04-22T07:07:54.764Z,9.50
2023-04-22T07:10:27.032Z,11.30
2023-04-22T07:13:18.076Z,11.30
2023-04-22T07:15:48.810Z,9.60
2023-04-22T07:18:19.505Z,7.70
2023-04-22T07:20:50.189Z,13.70
2023-04-22T07:23:21.660Z,11.00
2023-04-22T07:25:52.463Z,9.40
2023-04-22T07:28:23.169Z,12.30
2023-04-22T07:30:55.447Z,11.60
2023-04-22T07:33:26.213Z,14.10
2023-04-22T07:35:56.937Z,12.50
2023-04-22T07:38:27.697Z,5.90
2023-04-22T07:40:58.424Z,6.40
2023-04-22T07:43:29.218Z,10.60
2023-04-22T07:46:00.062Z,11.00
2023-04-22T07:48:30.848Z,8.30
2023-04-22T07:51:01.574Z,10.40
2023-04-22T07:53:32.245Z,12.40
2023-04-22T07:56:05.429Z,14.60
2023-04-22T07:58:36.099Z,8.80
2023-04-22T08:01:07.236Z,11.10
2023-04-22T08:03:38.031Z,11.20
2023-04-22T08:06:08.976Z,9.70
2023-04-22T08:08:39.669Z,13.00
2023-04-22T08:11:10.457Z,8.50
2023-04-22T08:13:41.103Z,11.80
2023-04-22T08:16:11.975Z,7.20
2023-04-22T08:18:42.790Z,6.10
2023-04-22T08:21:14.543Z,8.50
2023-04-22T08:23:45.267Z,7.90
2023-04-22T08:26:16.984Z,13.70
2023-04-22T08:28:47.950Z,15.60
2023-04-22T08:31:18.689Z,6.20
2023-04-22T08:33:50.896Z,6.60
2023-04-22T08:36:23.124Z,14.60
2023-04-22T08:38:54.743Z,6.30
2023-04-22T08:41:27.144Z,10.80
2023-04-22T08:43:58.669Z,7.90
2023-04-22T08:46:29.864Z,12.40
2023-04-22T08:49:04.070Z,15.30
2023-04-22T08:51:35.013Z,9.80
2023-04-22T08:54:06.095Z,12.70
2023-04-22T08:56:38.217Z,12.20
2023-04-22T08:59:10.623Z,8.70
2023-04-22T09:01:42.412Z,6.90
2023-04-22T09:04:15.847Z,7.50
2023-04-22T09:06:46.782Z,8.80
2023-04-22T09:09:18.595Z,7.80
2023-04-22T09:11:49.349Z,6.80
2023-04-22T09:14:20.208Z,11.80
2023-04-22T09:16:51.320Z,4.50
2023-04-22T09:19:26.484Z,11.80
2023-04-22T09:22:00.298Z,5.60
2023-04-22T09:24:31.955Z,12.70
2023-04-22T09:27:04.342Z,5.90
2023-04-22T09:29:34.989Z,5.90
2023-04-22T09:32:12.770Z,9.40
2023-04-22T09:34:52.786Z,5.20
2023-04-22T09:37:30.948Z,8.80
2023-04-22T09:40:07.966Z,4.80
2023-04-22T09:42:51.869Z,4.60
2023-04-22T09:45:31.515Z,3.90
2023-04-22T09:48:08.069Z,6.90
2023-04-22T09:50:39.638Z,11.40
2023-04-22T09:53:12.404Z,4.10
2023-04-22T09:55:45.607Z,7.00
2023-04-22T09:58:17.829Z,5.80
2023-04-22T10:00:55.753Z,4.00
2023-04-22T10:03:26.630Z,9.70
2023-04-22T10:05:58.996Z,7.60
2023-04-22T10:08:30.790Z,5.60
2023-04-22T10:11:01.554Z,4.10
2023-04-22T10:13:32.458Z,8.00
2023-04-22T10:16:03.903Z,5.70
2023-04-22T10:18:35.699Z,4.90
2023-04-22T10:21:07.455Z,8.10
2023-04-22T10:23:38.174Z,5.40
2023-04-22T10:26:08.885Z,6.90
2023-04-22T10:28:45.392Z,6.60
2023-04-22T10:31:24.215Z,6.40
2023-04-22T10:34:13.268Z,5.50
2023-04-22T10:36:59.237Z,3.90
2023-04-22T10:39:31.093Z,6.90
2023-04-22T10:42:15.498Z,6.60
2023-04-22T10:44:52.220Z,2.80
2023-04-22T10:47:31.013Z,6.50
2023-04-22T10:50:24.170Z,5.10
2023-04-22T10:52:58.450Z,4.90
2023-04-22T10:55:52.738Z,4.90
2023-04-22T10:58:25.912Z,5.70
2023-04-22T11:01:00.273Z,4.10
2023-04-22T11:03:32.413Z,7.80
2023-04-22T11:06:22.317Z,6.00
2023-04-22T11:09:09.297Z,3.30
2023-04-22T11:11:41.400Z,15.40
2023-04-22T11:14:13.328Z,5.90
2023-04-22T11:16:49.333Z,3.60
2023-04-22T11:19:20.136Z,6.50
2023-04-22T11:21:51.360Z,6.50
2023-04-22T11:24:22.548Z,2.80
2023-04-22T11:26:56.929Z,9.00
2023-04-22T11:29:28.191Z,4.70
2023-04-22T11:31:59.881Z,5.90
2023-04-22T11:34:32.044Z,4.80
2023-04-22T11:37:02.713Z,5.10
2023-04-22T11:39:47.559Z,6.10
2023-04-22T11:42:29.819Z,4.00
2023-04-22T11:45:00.590Z,6.30
2023-04-22T11:47:34.735Z,6.70
2023-04-22T11:50:10.229Z,3.60
2023-04-22T11:52:50.341Z,3.50
2023-04-22T11:55:24.224Z,4.40
2023-04-22T11:57:59.497Z,8.90
2023-04-22T12:00:34.132Z,5.70
2023-04-22T12:03:09.033Z,6.30
2023-04-22T12:05:41.829Z,5.70
2023-04-22T12:08:14.074Z,8.20
2023-04-22T12:10:47.091Z,6.00
2023-04-22T12:13:25.997Z,5.90
2023-04-22T12:15:59.478Z,4.50
2023-04-22T12:18:34.736Z,5.90
2023-04-22T12:21:11.329Z,9.50
2023-04-22T12:23:46.327Z,5.10
2023-04-22T12:26:17.888Z,5.20
2023-04-22T12:28:49.869Z,6.40
2023-04-22T12:31:21.438Z,4.50
2023-04-22T12:33:52.592Z,4.90
2023-04-22T12:36:25.132Z,7.20
2023-04-22T12:38:56.464Z,7.30
2023-04-22T12:41:27.236Z,11.20
2023-04-22T12:43:57.962Z,7.20
2023-04-22T12:46:29.042Z,10.10
2023-04-22T12:48:59.966Z,5.10
2023-04-22T12:51:31.077Z,5.50
2023-04-22T12:54:01.787Z,4.00
2023-04-22T12:56:32.655Z,16.40
2023-04-22T12:59:03.566Z,7.70
2023-04-22T13:01:35.908Z,3.80
2023-04-22T13:04:07.008Z,6.30
2023-04-22T13:06:38.661Z,4.30
2023-04-22T13:09:09.394Z,4.50
2023-04-22T13:11:40.194Z,4.30
2023-04-22T13:14:10.997Z,4.90
2023-04-22T13:16:41.846Z,13.40
2023-04-22T13:19:12.967Z,4.50
2023-04-22T13:21:43.760Z,6.00
2023-04-22T13:24:14.467Z,4.20
2023-04-22T13:26:45.231Z,4.80
2023-04-22T13:29:16.020Z,5.10
2023-04-22T13:31:46.968Z,5.20
2023-04-22T13:34:17.696Z,6.50
2023-04-22T13:36:48.460Z,6.10
2023-04-22T13:39:19.153Z,8.80
2023-04-22T13:41:49.870Z,3.80
2023-04-22T13:44:20.894Z,4.20
2023-04-22T13:46:51.934Z,6.30
2023-04-22T13:49:22.669Z,6.60
2023-04-22T13:51:53.435Z,3.70
2023-04-22T13:54:24.159Z,8.20
2023-04-22T13:56:54.787Z,6.90
2023-04-22T13:59:25.591Z,5.70
2023-04-22T14:01:56.286Z,4.60
2023-04-22T14:04:27.138Z,6.30
2023-04-22T14:06:57.948Z,5.60
2023-04-22T14:09:28.626Z,7.70
2023-04-22T14:11:59.403Z,8.50
2023-04-22T14:14:30.092Z,6.00
2023-04-22T14:17:01.344Z,3.90
2023-04-22T14:19:32.285Z,4.30
2023-04-22T14:22:03.085Z,6.20
2023-04-22T14:24:33.970Z,4.40
2023-04-22T14:27:05.311Z,4.70
2023-04-22T14:29:36.031Z,6.30
2023-04-22T14:32:06.872Z,6.00
2023-04-22T14:34:39.193Z,5.30
2023-04-22T14:37:09.873Z,4.50
2023-04-22T14:39:40.872Z,7.50
2023-04-22T14:42:12.708Z,4.10
2023-04-22T14:44:44.059Z,6.70
2023-04-22T14:47:14.812Z,7.90
2023-04-22T14:49:46.555Z,14.70
2023-04-22T14:52:17.702Z,6.50
2023-04-22T14:54:51.227Z,8.30
2023-04-22T14:57:23.258Z,3.40
2023-04-22T14:59:54.088Z,4.30
2023-04-22T15:02:25.985Z,7.70
2023-04-22T15:04:56.916Z,4.60
2023-04-22T15:07:28.021Z,3.70
2023-04-22T15:09:58.876Z,7.20
2023-04-22T15:12:29.998Z,5.10
2023-04-22T15:15:00.759Z,4.00
2023-04-22T15:17:31.993Z,10.40
2023-04-22T15:20:05.733Z,6.50
2023-04-22T15:22:37.437Z,3.50
2023-04-22T15:25:09.853Z,4.40
2023-04-22T15:27:41.455Z,10.60
2023-04-22T15:30:12.675Z,3.70
2023-04-22T15:32:43.376Z,3.20
2023-04-22T15:35:14.230Z,4.80
2023-04-22T15:37:46.393Z,6.20
2023-04-22T15:40:17.129Z,5.00
2023-04-22T15:42:47.820Z,6.50
2023-04-22T15:45:18.645Z,6.50
2023-04-22T15:47:52.394Z,4.50
2023-04-22T15:50:25.233Z,5.10
2023-04-22T15:52:56.303Z,7.00
2023-04-22T15:55:27.432Z,8.40
2023-04-22T15:57:58.242Z,5.90
2023-04-22T16:00:29.074Z,4.20
2023-04-22T16:03:00.045Z,6.00
2023-04-22T16:05:31.020Z,3.70
2023-04-22T16:08:01.840Z,6.50
2023-04-22T16:10:32.619Z,3.90
2023-04-22T16:13:03.419Z,3.50
2023-04-22T16:15:35.007Z,4.90
2023-04-22T16:18:06.185Z,3.60
2023-04-22T16:20:37.042Z,4.70
2023-04-22T16:23:09.194Z,5.60
2023-04-22T16:25:40.063Z,20.30
2023-04-22T16:28:11.425Z,30.10
2023-04-22T16:30:43.473Z,16.10
2023-04-22T16:33:15.716Z,11.50
2023-04-22T16:35:48.015Z,7.90
2023-04-22T16:38:18.843Z,6.10
2023-04-22T16:40:52.962Z,5.00
2023-04-22T16:43:24.701Z,4.70
2023-04-22T16:45:55.816Z,4.50
2023-04-22T16:48:26.638Z,7.70
2023-04-22T16:50:58.467Z,4.40
2023-04-22T16:53:29.790Z,3.50
2023-04-22T16:56:00.688Z,6.40
2023-04-22T16:58:32.141Z,4.80
2023-04-22T17:01:03.145Z,4.20
2023-04-22T17:03:34.814Z,4.40
2023-04-22T17:06:06.155Z,4.50
2023-04-22T17:08:37.134Z,6.80
2023-04-22T17:11:08.397Z,6.10
2023-04-22T17:13:39.467Z,6.20
2023-04-22T17:16:11.170Z,4.40
2023-04-22T17:18:42.724Z,7.70
2023-04-22T17:21:13.610Z,5.20
2023-04-22T17:23:44.637Z,6.90
2023-04-22T17:26:15.429Z,8.50
2023-04-22T17:28:46.893Z,5.30
2023-04-22T17:31:18.417Z,8.80
2023-04-22T17:33:49.225Z,9.60
2023-04-22T17:36:20.722Z,8.40
2023-04-22T17:38:51.920Z,5.90
2023-04-22T17:41:23.509Z,6.30
2023-04-22T17:43:54.915Z,10.30
2023-04-22T17:46:25.681Z,12.80
2023-04-22T17:48:59.179Z,6.90
2023-04-22T17:51:30.065Z,9.90
2023-04-22T17:54:05.397Z,201.20
2023-04-22T17:56:36.549Z,87.40
2023-04-22T17:59:07.432Z,32.20
2023-04-22T18:01:39.276Z,17.80
2023-04-22T18:04:10.346Z,13.50
2023-04-22T18:06:41.687Z,11.80
2023-04-22T18:09:13.069Z,14.20
2023-04-22T18:11:43.958Z,13.30
2023-04-22T18:14:14.984Z,12.40
2023-04-22T18:16:49.710Z,10.30
2023-04-22T18:19:22.866Z,10.50
2023-04-22T18:22:00.054Z,14.40
2023-04-22T18:24:31.452Z,15.10
2023-04-22T18:27:03.461Z,14.80
2023-04-22T18:29:38.911Z,15.70
2023-04-22T18:32:12.894Z,15.80
2023-04-22T18:34:47.188Z,13.60
2023-04-22T18:37:19.633Z,18.80
2023-04-22T18:39:50.794Z,19.40
2023-04-22T18:42:24.148Z,35.50
2023-04-22T18:44:55.158Z,26.00
2023-04-22T18:47:26.527Z,25.10
2023-04-22T18:49:58.566Z,41.00
2023-04-22T18:52:31.708Z,30.80
2023-04-22T18:55:02.535Z,40.60
2023-04-22T18:57:34.138Z,38.90
2023-04-22T19:00:06.642Z,40.80
2023-04-22T19:02:42.356Z,41.10
2023-04-22T19:05:14.725Z,38.60
2023-04-22T19:07:46.223Z,63.40
2023-04-22T19:10:19.430Z,80.20
2023-04-22T19:12:53.792Z,74.20
2023-04-22T19:15:24.861Z,73.30
2023-04-22T19:17:56.035Z,49.60
2023-04-22T19:20:27.079Z,54.00
2023-04-22T19:22:57.831Z,49.00
2023-04-22T19:25:30.575Z,68.00
2023-04-22T19:28:01.728Z,57.30
2023-04-22T19:30:32.612Z,51.70
2023-04-22T19:33:03.625Z,46.90
2023-04-22T19:35:35.068Z,45.80
2023-04-22T19:38:06.414Z,46.00
2023-04-22T19:40:40.962Z,51.60
2023-04-22T19:43:12.364Z,40.60
2023-04-22T19:45:43.644Z,44.40
2023-04-22T19:48:15.500Z,38.90
2023-04-22T19:50:47.954Z,56.90
2023-04-22T19:53:19.687Z,59.20
2023-04-22T19:55:51.401Z,50.30
2023-04-22T19:58:22.914Z,39.10
2023-04-22T20:00:54.658Z,36.30
2023-04-22T20:03:26.601Z,39.70
2023-04-22T20:06:00.356Z,47.00
2023-04-22T20:08:31.928Z,33.10
2023-04-22T20:11:04.053Z,39.60
2023-04-22T20:13:36.078Z,34.50
2023-04-22T20:16:07.986Z,38.60
2023-04-22T20:18:42.186Z,95.80
2023-04-22T20:21:13.624Z,65.10
2023-04-22T20:23:49.671Z,26.40
2023-04-22T20:26:22.586Z,39.80
2023-04-22T20:28:54.297Z,24.20
2023-04-22T20:31:29.648Z,24.50
2023-04-22T20:34:01.680Z,28.90
2023-04-22T20:36:32.999Z,29.80
2023-04-22T20:39:06.537Z,31.90
2023-04-22T20:41:46.133Z,26.10
2023-04-22T20:44:17.043Z,25.00
2023-04-22T20:46:48.810Z,27.10
2023-04-22T20:49:19.699Z,31.10
2023-04-22T20:51:59.324Z,19.40
2023-04-22T20:54:41.527Z,26.30
2023-04-22T20:57:26.066Z,19.10
2023-04-22T20:59:59.000Z,25.20
2023-04-22T21:02:35.210Z,26.00
2023-04-22T21:05:07.807Z,21.50
2023-04-22T21:07:41.575Z,21.60
2023-04-22T21:10:17.159Z,20.00
2023-04-22T21:12:48.947Z,17.50
2023-04-22T21:15:20.993Z,20.50
2023-04-22T21:17:56.727Z,15.00
2023-04-22T21:20:32.462Z,14.30
2023-04-22T21:23:06.909Z,19.00
2023-04-22T21:25:40.241Z,15.30
2023-04-22T21:28:12.255Z,20.00
2023-04-22T21:30:44.269Z,25.60
2023-04-22T21:33:15.201Z,23.20
2023-04-22T21:35:46.102Z,23.00
2023-04-22T21:38:17.162Z,21.60
2023-04-22T21:40:48.721Z,23.50
2023-04-22T21:43:19.644Z,19.80
2023-04-22T21:45:53.614Z,20.60
2023-04-22T21:48:24.412Z,20.70
2023-04-22T21:50:55.242Z,20.80
2023-04-22T21:53:26.090Z,16.50
2023-04-22T21:55:57.068Z,25.50
2023-04-22T21:58:28.185Z,23.20
2023-04-22T22:00:59.122Z,17.10
2023-04-22T22:03:31.384Z,16.50
2023-04-22T22:06:03.161Z,25.80
2023-04-22T22:08:34.535Z,20.70
2023-04-22T22:11:07.025Z,16.70
2023-04-22T22:13:38.926Z,22.80
2023-04-22T22:16:10.475Z,21.10
2023-04-22T22:18:41.953Z,15.00
2023-04-22T22:21:12.846Z,16.50
2023-04-22T22:23:43.550Z,15.40
2023-04-22T22:26:15.070Z,12.10
2023-04-22T22:28:46.323Z,15.80
2023-04-22T22:31:17.156Z,16.70
2023-04-22T22:33:48.006Z,24.40
2023-04-22T22:36:19.128Z,18.80
2023-04-22T22:38:50.478Z,15.60
2023-04-22T22:41:21.405Z,14.30
2023-04-22T22:43:52.182Z,14.30
2023-04-22T22:46:23.860Z,14.00
2023-04-22T22:48:54.972Z,11.60
2023-04-22T22:51:25.770Z,11.60
2023-04-22T22:53:59.485Z,17.00
2023-04-22T22:56:30.699Z,11.00
2023-04-22T22:59:01.429Z,19.30
2023-04-22T23:01:32.219Z,21.30
2023-04-22T23:04:03.400Z,16.00
2023-04-22T23:06:34.271Z,13.50
2023-04-22T23:09:05.166Z,13.10
2023-04-22T23:11:35.869Z,11.70
2023-04-22T23:14:09.749Z,12.80
2023-04-22T23:16:40.538Z,22.10
2023-04-22T23:19:11.504Z,19.30
2023-04-22T23:21:43.016Z,17.10
2023-04-22T23:24:15.678Z,16.30
2023-04-22T23:26:47.642Z,17.10
2023-04-22T23:29:19.974Z,16.00
2023-04-22T23:31:51.659Z,23.10
2023-04-22T23:34:24.752Z,13.80
2023-04-22T23:36:58.324Z,14.00
2023-04-22T23:39:29.163Z,19.50
2023-04-22T23:42:01.211Z,15.10
2023-04-22T23:44:32.577Z,14.70
2023-04-22T23:47:03.824Z,16.60
2023-04-22T23:49:35.264Z,18.70
2023-04-22T23:52:07.126Z,17.90
2023-04-22T23:54:39.261Z,25.70
2023-04-22T23:57:11.462Z,20.70
2023-04-22T23:59:43.489Z,17.80
